Time;durP1;ratioP1;P1;durP2;ratioP2;P2;SDS_P1;SDS_P2;PMS_P1;PMS_P2;Temp;Humidity;BMP_temperature;BMP_pressure;BME280_temperature;BME280_humidity;BME280_pressure;Samples;Min_cycle;Max_cycle;Signal;HPM_P1;HPM_P2
2022/06/29 00:00:18;;;;;;;10.65;6.60;;;17.10;75.80;;;;;;4998696;28;20065;-76
2022/06/29 00:02:45;;;;;;;11.85;7.20;;;17.10;76.00;;;;;;5001314;28;20033;-76
2022/06/29 00:05:13;;;;;;;11.50;6.55;;;17.10;76.10;;;;;;4996443;28;20042;-76
2022/06/29 00:07:39;;;;;;;12.18;7.38;;;17.00;76.20;;;;;;4997563;28;20049;-77
2022/06/29 00:10:06;;;;;;;13.13;6.75;;;17.10;76.30;;;;;;4998418;28;20486;-76
2022/06/29 00:12:32;;;;;;;10.63;6.97;;;17.00;76.30;;;;;;4989431;28;20038;-77
2022/06/29 00:15:02;;;;;;;11.93;6.65;;;17.00;76.30;;;;;;5001005;28;20591;-77
2022/06/29 00:17:28;;;;;;;11.13;6.90;;;16.90;76.40;;;;;;4998740;28;20504;-76
2022/06/29 00:19:54;;;;;;;12.05;6.65;;;16.90;76.60;;;;;;4999245;28;20100;-76
2022/06/29 00:22:20;;;;;;;14.00;6.40;;;16.90;76.70;;;;;;4995541;28;20050;-76
2022/06/29 00:24:46;;;;;;;13.23;6.85;;;16.80;76.80;;;;;;4997143;28;20033;-77
2022/06/29 00:27:11;;;;;;;12.95;7.05;;;16.70;76.90;;;;;;4999686;28;20434;-77
2022/06/29 00:29:37;;;;;;;11.35;7.05;;;16.60;77.20;;;;;;4995295;28;20431;-76
2022/06/29 00:32:04;;;;;;;10.63;6.60;;;16.70;77.20;;;;;;4995611;28;20046;-76
2022/06/29 00:34:30;;;;;;;11.60;7.18;;;16.60;77.40;;;;;;4993602;28;20708;-76
2022/06/29 00:36:55;;;;;;;10.95;6.70;;;16.60;77.40;;;;;;4995177;28;20047;-76
2022/06/29 00:39:21;;;;;;;11.13;6.93;;;16.60;77.30;;;;;;4998321;28;20040;-77
2022/06/29 00:41:47;;;;;;;10.25;6.93;;;16.60;77.50;;;;;;4997630;28;20072;-77
2022/06/29 00:44:14;;;;;;;13.18;8.05;;;16.50;77.60;;;;;;4996442;28;20046;-76
2022/06/29 00:46:46;;;;;;;12.88;7.53;;;16.50;77.70;;;;;;4999397;28;20064;-76
2022/06/29 00:49:14;;;;;;;9.80;7.22;;;16.50;77.80;;;;;;5000245;28;20331;-76
2022/06/29 00:51:43;;;;;;;12.88;7.18;;;16.50;77.90;;;;;;5000984;28;20068;-76
2022/06/29 00:54:13;;;;;;;10.70;7.25;;;16.40;78.00;;;;;;4999661;28;20041;-76
2022/06/29 00:56:40;;;;;;;10.90;7.10;;;16.40;78.30;;;;;;5000581;28;20057;-76
2022/06/29 00:59:10;;;;;;;11.77;7.45;;;16.30;78.40;;;;;;4998005;28;20046;-76
2022/06/29 01:01:36;;;;;;;11.50;7.28;;;16.30;78.50;;;;;;5000489;28;20056;-76
2022/06/29 01:04:01;;;;;;;12.15;8.40;;;16.20;78.60;;;;;;5002175;28;20038;-77
2022/06/29 01:06:27;;;;;;;11.48;7.35;;;16.20;78.60;;;;;;5000073;28;20034;-76
2022/06/29 01:08:53;;;;;;;14.48;7.90;;;16.20;78.80;;;;;;5012062;28;20046;-77
2022/06/29 01:11:18;;;;;;;14.07;8.10;;;16.20;78.90;;;;;;5003477;28;20472;-76
2022/06/29 01:13:44;;;;;;;11.80;7.40;;;16.20;78.80;;;;;;4994282;28;20545;-76
2022/06/29 01:16:10;;;;;;;13.55;8.65;;;16.20;78.60;;;;;;4997018;28;20080;-77
2022/06/29 01:18:36;;;;;;;12.45;8.13;;;16.10;78.60;;;;;;5000658;28;20519;-76
2022/06/29 01:21:08;;;;;;;14.23;8.35;;;16.10;78.90;;;;;;5001647;28;20152;-76
2022/06/29 01:23:34;;;;;;;12.65;8.30;;;16.10;78.80;;;;;;5016003;28;20030;-77
2022/06/29 01:26:04;;;;;;;13.40;8.55;;;16.10;78.80;;;;;;5001443;28;20445;-78
2022/06/29 01:28:30;;;;;;;11.10;8.23;;;16.00;78.90;;;;;;4988002;28;20037;-77
2022/06/29 01:30:56;;;;;;;12.32;8.60;;;15.90;79.10;;;;;;4997842;28;20510;-77
2022/06/29 01:33:22;;;;;;;12.35;8.73;;;15.80;79.10;;;;;;5001391;28;20037;-76
2022/06/29 01:35:48;;;;;;;12.70;8.25;;;15.80;79.60;;;;;;5012719;28;20038;-76
2022/06/29 01:38:13;;;;;;;12.27;9.45;;;15.80;79.90;;;;;;5010309;28;20037;-76
2022/06/29 01:40:39;;;;;;;11.20;8.77;;;15.70;80.00;;;;;;4995044;28;20038;-75
2022/06/29 01:43:05;;;;;;;13.95;8.70;;;15.70;80.10;;;;;;4992548;28;20042;-76
2022/06/29 01:45:30;;;;;;;10.95;8.20;;;15.70;80.10;;;;;;4991813;28;20038;-76
2022/06/29 01:47:56;;;;;;;13.90;8.55;;;15.70;79.90;;;;;;4995296;28;20038;-76
2022/06/29 01:50:23;;;;;;;15.65;8.88;;;15.70;80.10;;;;;;5006621;28;20512;-76
2022/06/29 01:52:48;;;;;;;12.90;8.38;;;15.70;80.10;;;;;;4999346;28;20041;-75
2022/06/29 01:55:14;;;;;;;14.50;9.02;;;15.70;80.20;;;;;;4995772;28;20536;-76
2022/06/29 01:57:40;;;;;;;15.85;9.32;;;15.70;80.20;;;;;;5001311;28;20100;-76
2022/06/29 02:00:06;;;;;;;15.63;10.15;;;15.70;80.20;;;;;;4998016;28;20034;-76
2022/06/29 02:02:31;;;;;;;13.82;9.48;;;15.70;80.30;;;;;;4995360;28;20585;-76
2022/06/29 02:04:57;;;;;;;14.77;9.85;;;15.60;79.90;;;;;;4997544;28;20045;-78
2022/06/29 02:07:23;;;;;;;16.13;10.10;;;15.60;80.00;;;;;;4996323;28;20052;-78
2022/06/29 02:09:48;;;;;;;16.42;10.45;;;15.60;80.40;;;;;;5001127;28;20033;-77
2022/06/29 02:12:14;;;;;;;12.77;9.50;;;15.50;80.60;;;;;;4992341;28;20030;-77
2022/06/29 02:14:39;;;;;;;11.85;9.63;;;15.40;81.00;;;;;;4999249;28;20061;-78
2022/06/29 02:17:05;;;;;;;15.45;9.20;;;15.40;80.90;;;;;;5000523;28;20397;-78
2022/06/29 02:19:31;;;;;;;15.10;10.25;;;15.40;80.60;;;;;;4998427;28;20192;-77
2022/06/29 02:21:56;;;;;;;12.73;9.45;;;15.40;80.90;;;;;;4998040;28;20052;-77
2022/06/29 02:24:22;;;;;;;14.10;9.30;;;15.30;81.10;;;;;;5001514;28;20447;-77
2022/06/29 02:26:47;;;;;;;13.45;9.45;;;15.30;81.20;;;;;;4996944;28;20037;-77
2022/06/29 02:29:13;;;;;;;12.65;9.02;;;15.30;81.50;;;;;;5003125;28;20058;-77
2022/06/29 02:37:07;;;;;;;18.00;11.18;;;15.10;82.30;;;;;;4999536;28;20041;-77
2022/06/29 02:39:33;;;;;;;14.77;10.13;;;15.10;82.40;;;;;;5003450;28;20037;-77
2022/06/29 02:41:58;;;;;;;14.00;10.38;;;15.10;82.60;;;;;;5000830;28;20045;-76
2022/06/29 02:44:25;;;;;;;13.25;9.52;;;15.10;82.50;;;;;;4992494;28;20141;-75
2022/06/29 02:46:51;;;;;;;14.27;10.32;;;15.10;82.50;;;;;;4993328;28;20281;-76
2022/06/29 02:49:16;;;;;;;14.32;9.63;;;15.10;82.50;;;;;;4997945;28;20034;-77
2022/06/29 02:51:42;;;;;;;14.70;10.00;;;15.20;82.30;;;;;;5001248;28;20034;-77
2022/06/29 02:54:08;;;;;;;14.85;10.05;;;15.10;82.10;;;;;;4999929;28;20150;-76
2022/06/29 02:56:33;;;;;;;13.32;9.73;;;15.10;82.30;;;;;;5001919;28;20200;-77
2022/06/29 02:58:59;;;;;;;16.60;10.48;;;15.10;82.00;;;;;;4994492;28;20482;-77
2022/06/29 03:01:25;;;;;;;17.05;10.45;;;15.10;82.00;;;;;;4997269;28;20073;-77
2022/06/29 03:03:50;;;;;;;15.80;9.77;;;15.10;82.30;;;;;;4994720;28;20092;-78
2022/06/29 03:06:16;;;;;;;17.10;10.80;;;15.00;82.50;;;;;;4989874;28;20050;-77
2022/06/29 03:08:42;;;;;;;19.20;11.20;;;15.00;82.80;;;;;;5001368;28;20120;-77
2022/06/29 03:11:07;;;;;;;18.40;11.98;;;15.00;83.00;;;;;;4994253;28;20051;-77
2022/06/29 03:13:33;;;;;;;14.52;11.15;;;14.90;83.10;;;;;;5001672;28;20045;-77
2022/06/29 03:15:59;;;;;;;17.45;11.93;;;14.90;83.30;;;;;;4995626;28;20042;-76
2022/06/29 03:18:24;;;;;;;21.10;12.20;;;14.90;83.30;;;;;;4992918;28;20156;-77
2022/06/29 03:20:50;;;;;;;16.60;11.50;;;14.90;83.40;;;;;;4992355;28;20081;-77
2022/06/29 03:23:16;;;;;;;16.17;11.32;;;14.80;83.90;;;;;;4996236;28;20362;-76
2022/06/29 03:25:41;;;;;;;15.45;11.00;;;14.80;83.90;;;;;;4994840;28;20038;-75
2022/06/29 03:28:07;;;;;;;15.30;11.70;;;14.80;83.60;;;;;;4994935;28;20041;-76
2022/06/29 03:30:33;;;;;;;14.98;11.30;;;14.80;83.50;;;;;;4995993;28;20029;-76
2022/06/29 03:32:58;;;;;;;15.77;10.60;;;14.80;83.60;;;;;;4999018;28;20111;-77
2022/06/29 03:35:24;;;;;;;15.15;11.00;;;14.80;83.60;;;;;;4993986;28;20041;-77
2022/06/29 03:37:50;;;;;;;15.50;10.40;;;14.80;83.40;;;;;;4999349;28;20041;-76
2022/06/29 03:40:16;;;;;;;21.48;12.27;;;14.80;83.30;;;;;;4994310;28;20041;-77
2022/06/29 03:42:42;;;;;;;16.63;11.30;;;14.80;83.20;;;;;;5000716;28;20097;-77
2022/06/29 03:45:08;;;;;;;13.02;10.80;;;14.80;83.10;;;;;;4999722;28;20046;-76
2022/06/29 03:47:34;;;;;;;17.00;11.13;;;14.80;83.10;;;;;;4996820;28;20509;-75
2022/06/29 03:50:00;;;;;;;18.60;10.98;;;14.80;82.70;;;;;;4992446;28;20030;-75
2022/06/29 03:52:26;;;;;;;18.25;12.35;;;14.80;82.80;;;;;;4992709;28;20049;-76
2022/06/29 03:54:51;;;;;;;16.85;12.15;;;14.90;82.50;;;;;;5000194;28;20049;-76
2022/06/29 03:57:17;;;;;;;15.75;11.45;;;14.90;82.50;;;;;;4999647;28;20117;-77
2022/06/29 03:59:43;;;;;;;14.52;10.75;;;14.90;82.30;;;;;;5000098;28;20048;-77
2022/06/29 04:02:09;;;;;;;15.30;11.68;;;14.90;82.40;;;;;;4988803;28;20054;-75
2022/06/29 04:04:35;;;;;;;14.55;11.18;;;14.80;82.20;;;;;;5004429;28;20045;-76
2022/06/29 04:07:00;;;;;;;14.82;10.50;;;14.90;82.20;;;;;;4994615;28;20056;-77
2022/06/29 04:09:26;;;;;;;15.52;11.38;;;14.90;82.20;;;;;;5001044;28;20061;-76
2022/06/29 04:11:53;;;;;;;16.30;11.40;;;15.00;82.00;;;;;;5000915;28;20052;-77
2022/06/29 04:14:21;;;;;;;18.77;10.90;;;15.00;82.00;;;;;;4992509;28;20041;-75
2022/06/29 04:16:47;;;;;;;19.40;11.98;;;14.90;82.20;;;;;;4997825;28;20172;-76
2022/06/29 04:19:13;;;;;;;19.27;11.73;;;14.90;82.00;;;;;;4994283;28;20037;-76
2022/06/29 04:21:39;;;;;;;13.77;10.88;;;14.90;82.20;;;;;;4999113;28;20049;-76
2022/06/29 04:24:05;;;;;;;14.23;10.75;;;15.00;82.20;;;;;;4999366;28;20044;-77
2022/06/29 04:26:30;;;;;;;15.23;10.70;;;15.00;82.10;;;;;;4996508;28;20447;-76
2022/06/29 04:28:56;;;;;;;15.93;10.95;;;15.10;82.00;;;;;;4997814;28;20990;-76
2022/06/29 04:31:22;;;;;;;15.13;10.70;;;15.10;81.90;;;;;;4996977;28;20141;-76
2022/06/29 04:33:47;;;;;;;14.98;10.52;;;15.20;81.80;;;;;;5002550;28;20144;-76
2022/06/29 04:36:13;;;;;;;16.13;10.88;;;15.20;81.60;;;;;;5003934;28;20177;-76
2022/06/29 04:38:39;;;;;;;13.93;10.02;;;15.30;81.40;;;;;;5001461;28;20454;-77
2022/06/29 04:41:04;;;;;;;15.60;10.88;;;15.40;81.20;;;;;;4997051;28;20042;-77
2022/06/29 04:43:30;;;;;;;14.93;10.95;;;15.40;81.00;;;;;;5001544;28;20043;-78
2022/06/29 04:48:41;;;;;;;14.70;11.18;;;15.50;80.50;;;;;;4997263;28;20108;-77
2022/06/29 04:51:07;;;;;;;17.70;12.23;;;15.50;80.70;;;;;;4995621;28;20522;-77
2022/06/29 04:53:33;;;;;;;14.65;11.60;;;15.60;80.60;;;;;;5010313;28;20350;-76
2022/06/29 04:55:59;;;;;;;17.05;10.65;;;15.60;80.70;;;;;;5007848;28;20046;-77
2022/06/29 04:58:24;;;;;;;14.05;11.02;;;15.80;80.50;;;;;;4999222;28;20046;-77
2022/06/29 05:00:50;;;;;;;14.30;9.85;;;15.80;80.30;;;;;;5003106;28;20054;-77
2022/06/29 05:03:16;;;;;;;17.33;11.15;;;16.00;80.20;;;;;;4999833;28;20769;-77
2022/06/29 05:05:42;;;;;;;17.48;11.30;;;16.10;79.90;;;;;;5001445;28;20058;-78
2022/06/29 05:08:08;;;;;;;16.52;11.55;;;16.10;79.40;;;;;;4998378;28;20129;-78
2022/06/29 05:10:33;;;;;;;15.75;11.27;;;16.30;79.60;;;;;;4997046;28;20299;-78
2022/06/29 05:13:00;;;;;;;21.83;10.75;;;17.30;78.00;;;;;;4991560;28;20122;-77
2022/06/29 05:15:26;;;;;;;17.27;10.57;;;19.10;73.40;;;;;;4990909;28;20046;-76
2022/06/29 05:17:51;;;;;;;19.30;9.73;;;20.50;65.10;;;;;;4999314;28;20064;-77
2022/06/29 05:20:20;;;;;;;17.77;10.00;;;22.00;61.70;;;;;;5000636;28;20093;-78
2022/06/29 05:22:46;;;;;;;19.38;10.75;;;23.10;56.10;;;;;;5010900;28;20066;-77
2022/06/29 05:25:12;;;;;;;14.73;10.23;;;23.70;53.60;;;;;;5023336;28;20022;-77
2022/06/29 05:27:37;;;;;;;19.42;10.30;;;24.10;52.80;;;;;;4995323;28;20074;-76
2022/06/29 05:30:04;;;;;;;17.33;10.02;;;24.70;51.20;;;;;;4993720;28;20034;-78
2022/06/29 05:32:30;;;;;;;18.23;10.68;;;25.00;49.40;;;;;;4998993;28;20043;-77
2022/06/29 05:34:55;;;;;;;18.73;9.90;;;25.40;48.70;;;;;;4993178;28;20042;-76
2022/06/29 05:37:21;;;;;;;14.27;9.18;;;25.80;48.00;;;;;;4996683;28;20044;-76
2022/06/29 05:39:47;;;;;;;14.25;8.88;;;26.50;46.30;;;;;;4999156;28;20049;-76
2022/06/29 05:42:13;;;;;;;17.30;10.60;;;26.80;45.40;;;;;;5001862;28;20053;-74
2022/06/29 05:44:39;;;;;;;24.48;11.43;;;26.50;45.40;;;;;;4998446;28;20500;-75
2022/06/29 05:47:06;;;;;;;17.08;9.38;;;26.80;44.50;;;;;;4996582;28;20091;-75
2022/06/29 05:49:32;;;;;;;18.95;9.00;;;26.60;45.50;;;;;;4997003;28;20046;-74
2022/06/29 05:51:57;;;;;;;16.70;9.07;;;27.20;44.30;;;;;;4988852;28;20441;-74
2022/06/29 05:54:23;;;;;;;16.80;8.68;;;27.30;43.60;;;;;;4992945;28;20459;-76
2022/06/29 05:56:48;;;;;;;16.75;8.95;;;27.00;44.50;;;;;;4994010;28;20100;-73
2022/06/29 05:59:14;;;;;;;17.40;9.57;;;26.10;45.90;;;;;;4995110;28;20477;-74
2022/06/29 06:01:40;;;;;;;17.38;10.45;;;25.10;48.00;;;;;;4990527;28;20133;-74
2022/06/29 06:04:06;;;;;;;18.52;10.48;;;23.80;51.70;;;;;;4990947;28;20523;-74
2022/06/29 06:06:32;;;;;;;19.50;10.10;;;22.80;54.90;;;;;;5001134;28;20049;-73
2022/06/29 06:09:00;;;;;;;20.70;10.38;;;21.80;57.90;;;;;;4996926;28;20214;-74
2022/06/29 06:11:26;;;;;;;19.85;10.07;;;21.20;59.90;;;;;;4994111;28;20735;-74
2022/06/29 06:13:52;;;;;;;17.15;10.75;;;20.80;61.30;;;;;;4994896;28;20056;-73
2022/06/29 06:16:17;;;;;;;15.10;9.57;;;20.60;61.20;;;;;;4990618;28;20053;-77
2022/06/29 06:18:43;;;;;;;17.15;10.90;;;20.30;62.50;;;;;;4990657;28;21391;-76
2022/06/29 06:21:08;;;;;;;14.45;10.40;;;20.10;62.60;;;;;;4991303;28;20453;-76
2022/06/29 06:23:34;;;;;;;15.13;9.73;;;20.10;63.20;;;;;;5000722;28;20505;-76
2022/06/29 06:26:00;;;;;;;13.77;9.27;;;20.30;62.60;;;;;;5004172;28;20045;-75
2022/06/29 06:28:25;;;;;;;14.32;10.20;;;20.30;63.60;;;;;;4999276;28;20042;-75
2022/06/29 06:30:51;;;;;;;17.20;11.80;;;20.40;63.50;;;;;;4996210;28;20283;-75
2022/06/29 06:33:16;;;;;;;15.25;11.02;;;20.40;63.40;;;;;;4998448;28;20043;-76
2022/06/29 06:35:42;;;;;;;15.35;10.13;;;20.60;63.70;;;;;;5003435;28;20046;-76
2022/06/29 06:38:08;;;;;;;16.15;11.27;;;20.60;63.80;;;;;;4994910;28;20049;-75
2022/06/29 06:43:17;;;;;;;15.65;10.98;;;20.60;64.70;;;;;;4998416;28;20049;-76
2022/06/29 06:45:43;;;;;;;16.48;10.60;;;20.60;64.20;;;;;;4998081;28;20038;-74
2022/06/29 06:48:09;;;;;;;15.75;10.20;;;20.70;64.10;;;;;;4996333;28;20101;-74
2022/06/29 06:50:34;;;;;;;16.98;10.95;;;21.00;63.10;;;;;;4995536;28;20462;-73
2022/06/29 06:53:02;;;;;;;13.70;9.80;;;21.10;62.40;;;;;;4998927;28;20177;-73
2022/06/29 06:55:28;;;;;;;16.48;11.27;;;21.30;62.80;;;;;;4992951;28;20045;-74
2022/06/29 06:57:53;;;;;;;19.90;11.27;;;21.30;61.70;;;;;;4992745;28;20173;-74
2022/06/29 07:00:19;;;;;;;16.00;10.05;;;21.20;61.40;;;;;;4996924;28;20041;-74
2022/06/29 07:02:45;;;;;;;15.40;10.75;;;21.40;62.30;;;;;;4997101;28;20045;-73
2022/06/29 07:05:10;;;;;;;15.18;9.55;;;21.60;61.90;;;;;;4993774;28;20029;-75
2022/06/29 07:07:36;;;;;;;14.48;10.15;;;21.80;60.20;;;;;;4996179;28;20034;-74
2022/06/29 07:10:03;;;;;;;18.65;9.65;;;21.90;59.90;;;;;;4992799;28;20293;-73
2022/06/29 07:12:28;;;;;;;14.55;9.75;;;22.00;59.50;;;;;;4989467;28;20117;-74
2022/06/29 07:14:54;;;;;;;21.27;9.90;;;22.10;59.50;;;;;;4995807;28;20057;-73
2022/06/29 07:17:20;;;;;;;14.48;9.27;;;22.10;59.80;;;;;;4993804;28;20451;-74
2022/06/29 07:19:45;;;;;;;16.40;9.38;;;22.30;59.30;;;;;;4997586;28;20442;-75
2022/06/29 07:22:11;;;;;;;13.70;8.57;;;22.40;59.80;;;;;;4998268;28;20042;-72
2022/06/29 07:24:37;;;;;;;12.90;8.48;;;22.60;59.80;;;;;;4991511;28;20042;-74
2022/06/29 07:27:03;;;;;;;13.48;8.63;;;22.60;58.90;;;;;;4994331;28;20520;-73
2022/06/29 07:29:28;;;;;;;15.48;9.23;;;22.80;58.50;;;;;;4993167;28;20497;-72
2022/06/29 07:31:54;;;;;;;15.70;9.00;;;22.90;58.30;;;;;;4998122;28;20089;-75
2022/06/29 07:34:19;;;;;;;17.10;8.57;;;23.10;57.50;;;;;;4992412;28;20050;-74
2022/06/29 07:36:48;;;;;;;14.98;8.00;;;23.10;56.40;;;;;;4997099;28;20042;-75
2022/06/29 07:39:13;;;;;;;12.60;7.15;;;23.20;57.00;;;;;;4995261;28;20088;-79
2022/06/29 07:41:41;;;;;;;15.82;7.95;;;23.10;57.60;;;;;;4994674;28;20110;-75
2022/06/29 07:44:06;;;;;;;12.48;7.30;;;23.40;56.80;;;;;;4996210;28;20042;-78
2022/06/29 07:46:32;;;;;;;13.75;7.78;;;23.50;57.00;;;;;;5000594;28;20457;-75
2022/06/29 07:48:58;;;;;;;12.85;6.28;;;23.80;56.30;;;;;;5004070;28;20062;-77
2022/06/29 07:51:24;;;;;;;11.93;6.47;;;24.00;55.30;;;;;;4992230;28;20049;-73
2022/06/29 07:53:50;;;;;;;13.77;5.75;;;24.00;55.30;;;;;;4992015;28;20257;-74
2022/06/29 07:56:15;;;;;;;12.20;5.38;;;24.20;55.80;;;;;;4999558;28;20044;-74
2022/06/29 07:58:41;;;;;;;10.18;5.03;;;24.30;54.20;;;;;;5002061;28;20042;-74
2022/06/29 08:01:07;;;;;;;11.57;5.70;;;24.50;53.00;;;;;;4993352;28;20453;-74
2022/06/29 08:03:32;;;;;;;11.05;5.43;;;24.60;53.10;;;;;;4996923;28;20042;-75
2022/06/29 08:05:59;;;;;;;14.55;5.72;;;24.70;52.00;;;;;;4995745;28;20042;-74
2022/06/29 08:08:25;;;;;;;18.15;6.68;;;24.80;52.80;;;;;;5002892;28;20038;-73
2022/06/29 08:10:50;;;;;;;11.77;5.55;;;25.00;51.70;;;;;;4995168;28;20045;-74
2022/06/29 08:13:17;;;;;;;12.57;5.32;;;24.80;53.90;;;;;;4989659;28;20034;-75
2022/06/29 08:15:45;;;;;;;11.23;4.75;;;25.00;52.60;;;;;;4996423;28;20090;-74
2022/06/29 08:18:12;;;;;;;13.35;5.90;;;25.10;51.50;;;;;;4994148;28;20843;-74
2022/06/29 08:20:38;;;;;;;11.13;4.20;;;25.40;52.30;;;;;;4992599;28;20043;-73
2022/06/29 08:23:04;;;;;;;11.18;4.60;;;25.60;51.40;;;;;;4996884;28;20468;-73
2022/06/29 08:25:31;;;;;;;8.45;4.10;;;25.70;49.60;;;;;;4999592;28;20121;-74
2022/06/29 08:27:57;;;;;;;11.50;4.63;;;25.80;49.90;;;;;;4999448;28;20037;-74
2022/06/29 08:30:23;;;;;;;14.93;4.78;;;25.90;49.40;;;;;;4997353;28;20030;-73
2022/06/29 08:32:49;;;;;;;14.85;4.65;;;25.60;50.30;;;;;;5001287;28;20034;-74
2022/06/29 08:35:16;;;;;;;9.55;3.97;;;25.70;50.00;;;;;;4996677;28;20553;-75
2022/06/29 08:37:43;;;;;;;10.50;4.10;;;26.00;49.40;;;;;;5001252;28;20362;-73
2022/06/29 08:40:15;;;;;;;8.65;3.17;;;26.20;50.10;;;;;;5002880;28;20461;-74
2022/06/29 08:42:41;;;;;;;8.73;3.13;;;26.20;48.80;;;;;;5007478;28;20038;-74
2022/06/29 08:45:11;;;;;;;9.30;3.15;;;26.10;48.20;;;;;;5003168;28;20038;-73
2022/06/29 08:47:37;;;;;;;10.15;3.40;;;26.30;47.20;;;;;;4995847;28;20465;-75
2022/06/29 08:50:07;;;;;;;9.13;2.53;;;26.30;46.70;;;;;;4992715;28;20030;-74
2022/06/29 08:52:35;;;;;;;11.02;2.53;;;26.40;44.80;;;;;;4997988;28;20062;-76
2022/06/29 08:55:07;;;;;;;10.23;2.50;;;26.50;44.70;;;;;;4996006;28;20042;-75
2022/06/29 08:57:37;;;;;;;11.57;2.70;;;26.70;42.80;;;;;;4997839;28;20034;-74
2022/06/29 09:00:04;;;;;;;9.18;2.40;;;26.90;45.20;;;;;;5000430;28;20197;-74
2022/06/29 09:02:31;;;;;;;6.95;2.42;;;27.00;42.60;;;;;;4992752;28;20092;-73
2022/06/29 09:04:57;;;;;;;9.38;2.30;;;27.00;42.90;;;;;;4997459;28;20430;-75
2022/06/29 09:07:24;;;;;;;6.03;2.17;;;27.00;42.20;;;;;;4999771;28;20718;-74
2022/06/29 09:10:13;;;;;;;5.82;2.33;;;27.30;41.90;;;;;;5008168;28;20041;-76
2022/06/29 09:12:39;;;;;;;7.10;2.15;;;27.30;41.60;;;;;;4996920;28;20046;-74
2022/06/29 09:15:07;;;;;;;8.43;2.28;;;27.20;40.40;;;;;;4997699;28;20054;-74
2022/06/29 09:17:35;;;;;;;6.50;2.00;;;27.40;41.00;;;;;;5001292;28;20034;-74
2022/06/29 09:20:02;;;;;;;6.80;2.15;;;27.60;41.60;;;;;;4993192;28;20159;-76
2022/06/29 09:22:29;;;;;;;7.65;2.05;;;27.70;38.90;;;;;;4999445;28;20073;-73
2022/06/29 09:24:55;;;;;;;5.35;1.73;;;27.60;39.20;;;;;;4994365;28;20053;-74
2022/06/29 09:27:24;;;;;;;5.43;2.00;;;27.60;39.50;;;;;;4999592;28;20045;-73
2022/06/29 09:29:49;;;;;;;8.20;2.05;;;27.50;39.00;;;;;;5010315;28;20057;-74
2022/06/29 09:32:17;;;;;;;7.70;2.10;;;27.60;39.00;;;;;;4998568;28;20461;-75
2022/06/29 09:34:47;;;;;;;8.80;2.30;;;27.70;40.20;;;;;;5002652;28;20160;-74
2022/06/29 09:37:18;;;;;;;8.32;2.00;;;27.50;40.20;;;;;;4997543;28;20038;-74
2022/06/29 09:39:46;;;;;;;8.25;2.13;;;27.60;40.90;;;;;;4995619;28;20042;-74
2022/06/29 09:42:18;;;;;;;7.38;2.22;;;27.70;40.80;;;;;;4990645;28;20137;-75
2022/06/29 09:44:45;;;;;;;7.43;2.05;;;27.90;40.80;;;;;;5002794;28;20501;-75
2022/06/29 09:47:16;;;;;;;6.03;1.80;;;28.10;39.80;;;;;;4996926;28;20038;-75
2022/06/29 09:49:43;;;;;;;5.80;1.88;;;28.20;38.30;;;;;;4996846;28;20473;-75
2022/06/29 09:52:10;;;;;;;9.30;2.13;;;28.10;39.10;;;;;;4993011;28;20145;-73
2022/06/29 09:54:50;;;;;;;7.05;1.92;;;28.30;39.00;;;;;;4997109;28;20057;-74
2022/06/29 09:57:20;;;;;;;8.60;2.28;;;28.30;37.80;;;;;;4994504;28;20044;-74
2022/06/29 10:02:37;;;;;;;6.50;2.03;;;28.50;38.00;;;;;;4991023;28;20048;-75
2022/06/29 10:05:13;;;;;;;5.97;1.90;;;28.80;37.80;;;;;;5000580;28;20388;-74
2022/06/29 10:07:44;;;;;;;7.85;1.90;;;28.80;37.80;;;;;;5001199;28;20477;-72
2022/06/29 10:10:12;;;;;;;8.98;2.22;;;29.00;35.60;;;;;;5000875;28;20034;-74
2022/06/29 10:16:00;;;;;;;6.55;1.90;;;28.80;37.50;;;;;;4999573;28;20524;-76
2022/06/29 10:18:54;;;;;;;6.97;2.40;;;28.90;37.60;;;;;;4997710;28;20547;-74
2022/06/29 10:21:28;;;;;;;10.73;2.85;;;28.70;37.70;;;;;;4988166;28;20041;-75
2022/06/29 10:23:56;;;;;;;6.63;1.88;;;28.30;38.50;;;;;;4993984;28;20061;-74
2022/06/29 10:26:28;;;;;;;5.30;1.70;;;28.00;38.00;;;;;;4992155;28;20385;-74
2022/06/29 10:29:16;;;;;;;7.88;2.00;;;28.10;38.80;;;;;;5005839;28;20172;-74
2022/06/29 10:31:51;;;;;;;7.60;2.10;;;28.40;37.20;;;;;;4977648;28;20065;-74
2022/06/29 10:34:35;;;;;;;8.13;2.17;;;28.50;37.80;;;;;;4986186;28;20053;-75
2022/06/29 10:37:09;;;;;;;4.72;1.80;;;28.50;36.30;;;;;;4988140;28;20429;-74
2022/06/29 10:39:48;;;;;;;7.80;2.10;;;28.30;37.40;;;;;;4990576;28;20057;-73
2022/06/29 10:45:24;;;;;;;7.57;1.92;;;28.40;37.70;;;;;;4989339;28;20052;-73
2022/06/29 10:47:53;;;;;;;7.25;2.10;;;28.50;38.30;;;;;;4988192;28;20362;-76
2022/06/29 10:50:20;;;;;;;8.50;2.33;;;28.80;37.10;;;;;;4990397;28;20552;-77
2022/06/29 10:52:47;;;;;;;10.77;2.78;;;28.80;37.50;;;;;;4990138;28;20486;-74
2022/06/29 10:55:14;;;;;;;9.75;2.35;;;28.80;38.50;;;;;;4993626;28;20084;-74
2022/06/29 10:57:42;;;;;;;7.47;2.25;;;28.90;37.40;;;;;;4990506;28;20038;-78
2022/06/29 11:00:14;;;;;;;6.30;1.85;;;29.10;38.90;;;;;;4994758;28;20166;-73
2022/06/29 11:02:42;;;;;;;5.68;1.67;;;29.10;36.20;;;;;;5004126;28;20053;-73
2022/06/29 11:05:08;;;;;;;6.45;1.88;;;29.50;35.10;;;;;;4996180;28;20770;-77
2022/06/29 11:13:04;;;;;;;6.25;1.98;;;29.60;32.90;;;;;;4999008;28;20056;-75
2022/06/29 11:15:44;;;;;;;6.05;1.50;;;29.50;33.30;;;;;;4999869;28;20064;-74
2022/06/29 11:18:20;;;;;;;6.07;1.75;;;29.40;33.80;;;;;;4998784;28;20030;-75
2022/06/29 11:20:51;;;;;;;5.72;2.22;;;29.30;33.70;;;;;;4999711;28;20029;-76
2022/06/29 11:23:21;;;;;;;4.82;1.67;;;29.10;34.20;;;;;;4997950;28;20041;-74
2022/06/29 11:25:54;;;;;;;7.22;1.50;;;28.90;34.50;;;;;;4999092;28;20052;-74
2022/06/29 11:28:23;;;;;;;5.40;1.50;;;28.70;34.90;;;;;;5001604;28;20156;-73
2022/06/29 11:31:06;;;;;;;4.82;1.58;;;28.90;35.00;;;;;;4998626;28;20045;-76
2022/06/29 11:33:39;;;;;;;4.20;1.40;;;29.10;33.50;;;;;;4995793;28;20044;-72
2022/06/29 11:36:10;;;;;;;5.57;1.63;;;29.40;34.50;;;;;;4992376;28;20501;-72
2022/06/29 11:38:41;;;;;;;7.28;1.67;;;29.60;32.50;;;;;;4994361;28;20058;-75
2022/06/29 11:41:10;;;;;;;5.22;1.38;;;29.60;32.80;;;;;;4997253;28;20048;-73
2022/06/29 11:43:36;;;;;;;4.80;1.60;;;29.50;33.50;;;;;;5011995;28;20038;-76
2022/06/29 11:46:02;;;;;;;13.00;2.70;;;29.40;33.80;;;;;;5001812;28;20056;-75
2022/06/29 11:48:29;;;;;;;6.85;1.67;;;29.70;34.30;;;;;;4995916;28;20042;-72
2022/06/29 11:51:01;;;;;;;9.45;1.75;;;29.70;33.40;;;;;;4993311;28;20045;-73
2022/06/29 11:53:48;;;;;;;10.23;2.05;;;29.80;33.20;;;;;;4996394;28;20431;-77
2022/06/29 11:56:18;;;;;;;8.98;1.92;;;29.80;33.30;;;;;;4994317;28;20041;-76
2022/06/29 11:58:50;;;;;;;5.28;1.65;;;29.80;33.00;;;;;;4995388;28;20050;-76
2022/06/29 12:01:20;;;;;;;6.05;1.58;;;29.70;32.60;;;;;;4992875;28;20057;-74
2022/06/29 12:03:53;;;;;;;5.43;1.85;;;29.90;33.80;;;;;;4999400;28;20034;-72
2022/06/29 12:06:24;;;;;;;6.60;1.52;;;29.60;34.00;;;;;;4995238;28;21382;-74
2022/06/29 12:08:54;;;;;;;4.07;1.55;;;29.30;34.60;;;;;;4998268;28;20406;-75
2022/06/29 12:11:21;;;;;;;6.15;1.63;;;29.10;34.60;;;;;;4989781;28;20107;-75
2022/06/29 12:13:46;;;;;;;5.38;1.60;;;28.90;36.50;;;;;;4995957;28;20048;-76
2022/06/29 12:16:13;;;;;;;6.07;1.88;;;29.10;35.40;;;;;;4987788;28;20050;-75
2022/06/29 12:18:39;;;;;;;5.38;1.65;;;29.20;35.30;;;;;;4992627;28;20356;-76
2022/06/29 12:21:05;;;;;;;4.75;1.60;;;29.30;34.50;;;;;;4994351;28;20398;-76
2022/06/29 12:23:31;;;;;;;6.70;1.80;;;29.30;34.50;;;;;;4995597;28;20038;-76
2022/06/29 12:25:58;;;;;;;3.85;1.48;;;29.20;34.80;;;;;;5000494;28;20635;-75
2022/06/29 12:28:23;;;;;;;9.00;1.70;;;29.60;35.10;;;;;;4995539;28;20481;-73
2022/06/29 12:30:51;;;;;;;4.40;1.52;;;29.80;34.40;;;;;;4993770;28;20137;-75
2022/06/29 12:33:17;;;;;;;5.85;1.60;;;29.80;34.60;;;;;;5003144;28;20040;-76
2022/06/29 12:35:42;;;;;;;6.90;1.90;;;30.00;33.70;;;;;;4996663;28;20116;-75
2022/06/29 12:38:08;;;;;;;4.10;1.42;;;29.50;34.00;;;;;;5005438;28;20042;-75
2022/06/29 12:40:35;;;;;;;8.40;1.63;;;29.60;34.30;;;;;;4999382;28;20155;-77
2022/06/29 12:43:01;;;;;;;7.03;1.52;;;29.90;33.80;;;;;;4996707;28;20090;-76
2022/06/29 12:45:27;;;;;;;4.82;1.50;;;29.80;35.00;;;;;;4994258;28;20451;-76
2022/06/29 12:47:53;;;;;;;6.68;1.55;;;30.00;33.60;;;;;;5001155;28;20041;-75
2022/06/29 12:50:20;;;;;;;5.65;1.50;;;29.80;33.90;;;;;;4994829;28;20208;-76
2022/06/29 12:52:47;;;;;;;5.88;2.00;;;29.70;33.70;;;;;;4996095;28;20571;-75
2022/06/29 12:55:18;;;;;;;6.95;1.55;;;29.50;34.60;;;;;;4994675;28;20255;-76
2022/06/29 12:57:44;;;;;;;3.80;1.48;;;29.60;34.50;;;;;;4995264;28;20091;-77
2022/06/29 13:00:11;;;;;;;6.65;1.90;;;29.80;34.00;;;;;;5001952;28;20037;-77